createdAt,value
2018-04-13T00:02:26.397Z,6.70
2018-04-13T00:04:55.121Z,6.27
2018-04-13T00:07:23.851Z,6.77
2018-04-13T00:09:52.661Z,6.67
2018-04-13T00:12:21.384Z,6.10
2018-04-13T00:14:50.125Z,6.53
2018-04-13T00:17:18.829Z,5.93
2018-04-13T00:19:47.651Z,5.87
2018-04-13T00:22:16.474Z,7.10
2018-04-13T00:24:45.295Z,7.00
2018-04-13T00:27:14.117Z,6.33
2018-04-13T00:29:43.327Z,6.37
2018-04-13T00:32:12.062Z,6.77
2018-04-13T00:34:40.888Z,6.13
2018-04-13T00:37:09.554Z,6.47
2018-04-13T00:39:38.336Z,6.87
2018-04-13T00:42:07.054Z,6.23
2018-04-13T00:44:35.873Z,7.03
2018-04-13T00:47:04.513Z,6.27
2018-04-13T00:49:33.321Z,7.23
2018-04-13T00:52:02.044Z,7.03
2018-04-13T00:54:30.747Z,6.23
2018-04-13T00:56:59.463Z,6.87
2018-04-13T00:59:28.802Z,6.27
2018-04-13T01:01:57.468Z,6.23
2018-04-13T01:04:26.251Z,7.20
2018-04-13T01:06:54.972Z,6.80
2018-04-13T01:09:23.796Z,6.13
2018-04-13T01:11:52.522Z,6.60
2018-04-13T01:14:21.442Z,6.93
2018-04-13T01:16:50.173Z,7.27
2018-04-13T01:19:19.083Z,6.87
2018-04-13T01:21:47.910Z,6.97
2018-04-13T01:24:16.727Z,7.20
2018-04-13T01:26:45.460Z,6.50
2018-04-13T01:29:14.179Z,7.63
2018-04-13T01:31:43.511Z,7.03
2018-04-13T01:34:12.226Z,6.63
2018-04-13T01:36:40.938Z,6.10
2018-04-13T01:39:09.724Z,6.30
2018-04-13T01:41:38.442Z,7.47
2018-04-13T01:44:07.206Z,6.50
2018-04-13T01:46:36.026Z,6.97
2018-04-13T01:49:04.852Z,6.53
2018-04-13T01:51:33.633Z,7.00
2018-04-13T01:54:02.296Z,7.00
2018-04-13T01:56:31.088Z,7.00
2018-04-13T01:58:59.839Z,6.70
2018-04-13T02:01:28.564Z,6.83
2018-04-13T02:03:57.382Z,7.37
2018-04-13T02:06:25.992Z,7.93
2018-04-13T02:08:55.397Z,7.57
2018-04-13T02:11:24.251Z,7.67
2018-04-13T02:13:53.033Z,8.03
2018-04-13T02:16:21.795Z,7.27
2018-04-13T02:18:50.515Z,7.73
2018-04-13T02:21:19.246Z,8.27
2018-04-13T02:23:47.959Z,10.27
2018-04-13T02:26:16.595Z,8.53
2018-04-13T02:28:45.305Z,8.10
2018-04-13T02:31:13.923Z,8.53
2018-04-13T02:33:42.645Z,9.27
2018-04-13T02:36:11.369Z,9.37
2018-04-13T02:38:40.000Z,9.90
2018-04-13T02:41:08.734Z,10.30
2018-04-13T02:43:37.436Z,8.87
2018-04-13T02:46:06.857Z,9.77
2018-04-13T02:48:35.781Z,8.67
2018-04-13T02:51:04.591Z,8.33
2018-04-13T02:53:33.324Z,8.07
2018-04-13T02:56:02.043Z,7.60
2018-04-13T02:58:30.778Z,7.67
2018-04-13T03:00:59.511Z,7.47
2018-04-13T03:03:28.314Z,7.87
2018-04-13T03:05:57.015Z,8.03
2018-04-13T03:08:25.723Z,7.20
2018-04-13T03:10:54.372Z,7.90
2018-04-13T03:13:23.104Z,8.07
2018-04-13T03:15:52.627Z,7.77
2018-04-13T03:18:21.245Z,7.37
2018-04-13T03:20:49.867Z,8.17
2018-04-13T03:23:18.653Z,8.13
2018-04-13T03:25:47.228Z,7.47
2018-04-13T03:28:15.844Z,15.60
2018-04-13T03:30:44.555Z,7.73
2018-04-13T03:33:13.294Z,7.97
2018-04-13T03:35:41.903Z,8.10
2018-04-13T03:38:10.718Z,8.03
2018-04-13T03:40:39.355Z,8.37
2018-04-13T03:43:08.075Z,7.97
2018-04-13T03:45:37.184Z,7.37
2018-04-13T03:48:06.030Z,8.20
2018-04-13T03:50:34.730Z,8.00
2018-04-13T03:53:03.338Z,8.03
2018-04-13T03:55:31.955Z,7.40
2018-04-13T03:58:00.596Z,7.97
2018-04-13T04:00:29.316Z,7.37
2018-04-13T04:02:58.036Z,8.10
2018-04-13T04:05:26.835Z,8.23
2018-04-13T04:07:55.385Z,7.73
2018-04-13T04:10:24.104Z,8.17
2018-04-13T04:12:52.823Z,8.37
2018-04-13T04:15:21.529Z,8.27
2018-04-13T04:17:50.166Z,9.23
2018-04-13T04:20:31.633Z,8.67
2018-04-13T04:23:12.097Z,8.27
2018-04-13T04:25:52.661Z,9.07
2018-04-13T04:28:21.384Z,8.93
2018-04-13T04:30:50.103Z,8.43
2018-04-13T04:33:18.826Z,7.70
2018-04-13T04:35:47.436Z,8.57
2018-04-13T04:38:16.270Z,7.20
2018-04-13T04:40:44.892Z,8.43
2018-04-13T04:43:13.529Z,8.23
2018-04-13T04:45:42.237Z,8.10
2018-04-13T04:48:10.865Z,7.93
2018-04-13T04:50:39.576Z,8.07
2018-04-13T04:53:08.208Z,8.13
2018-04-13T04:55:36.842Z,7.97
2018-04-13T04:58:05.860Z,8.37
2018-04-13T05:00:34.474Z,7.67
2018-04-13T05:03:03.169Z,7.97
2018-04-13T05:05:31.910Z,8.83
2018-04-13T05:08:00.636Z,8.47
2018-04-13T05:10:29.256Z,7.77
2018-04-13T05:12:58.076Z,9.03
2018-04-13T05:15:26.722Z,8.73
2018-04-13T05:17:55.498Z,8.83
2018-04-13T05:20:24.242Z,7.97
2018-04-13T05:22:52.965Z,9.07
2018-04-13T05:25:21.606Z,8.43
2018-04-13T05:27:50.409Z,9.03
2018-04-13T05:30:19.136Z,8.57
2018-04-13T05:32:47.750Z,8.93
2018-04-13T05:35:17.180Z,8.30
2018-04-13T05:37:46.004Z,8.10
2018-04-13T05:40:14.622Z,9.20
2018-04-13T05:42:43.241Z,11.10
2018-04-13T05:45:11.864Z,10.17
2018-04-13T05:47:40.483Z,9.90
2018-04-13T05:50:09.208Z,9.10
2018-04-13T05:52:37.851Z,11.07
2018-04-13T05:55:06.653Z,11.47
2018-04-13T05:57:35.372Z,9.77
2018-04-13T06:00:04.154Z,10.63
2018-04-13T06:02:32.918Z,10.40
2018-04-13T06:05:01.654Z,10.63
2018-04-13T06:07:30.863Z,10.63
2018-04-13T06:09:59.583Z,10.47
2018-04-13T06:12:28.308Z,10.37
2018-04-13T06:14:57.030Z,10.50
2018-04-13T06:17:25.748Z,11.60
2018-04-13T06:19:54.473Z,12.20
2018-04-13T06:22:23.194Z,11.53
2018-04-13T06:24:51.821Z,10.97
2018-04-13T06:27:20.448Z,10.97
2018-04-13T06:29:49.080Z,12.70
2018-04-13T06:32:17.854Z,10.80
2018-04-13T06:34:46.601Z,11.17
2018-04-13T06:37:15.301Z,11.50
2018-04-13T06:39:44.045Z,11.03
2018-04-13T06:42:12.771Z,10.87
2018-04-13T06:44:42.000Z,11.57
2018-04-13T06:47:10.584Z,11.63
2018-04-13T06:49:39.199Z,10.73
2018-04-13T06:52:07.955Z,10.83
2018-04-13T06:54:36.506Z,11.10
2018-04-13T06:57:05.174Z,10.80
2018-04-13T06:59:34.727Z,11.43
2018-04-13T07:02:03.553Z,12.17
2018-04-13T07:04:32.182Z,11.80
2018-04-13T07:07:01.695Z,13.27
2018-04-13T07:09:30.387Z,13.07
2018-04-13T07:11:59.071Z,14.20
2018-04-13T07:14:27.858Z,9.37
2018-04-13T07:16:56.499Z,10.57
2018-04-13T07:19:25.305Z,11.77
2018-04-13T07:21:53.924Z,11.30
2018-04-13T07:24:22.500Z,10.03
2018-04-13T07:26:51.165Z,10.67
2018-04-13T07:29:19.874Z,10.07
2018-04-13T07:31:48.752Z,11.20
2018-04-13T07:34:17.250Z,10.50
2018-04-13T07:36:45.955Z,9.03
2018-04-13T07:39:15.329Z,9.10
2018-04-13T07:41:44.082Z,9.00
2018-04-13T07:44:12.799Z,9.30
2018-04-13T07:46:42.058Z,9.97
2018-04-13T07:49:10.671Z,10.33
2018-04-13T07:51:39.492Z,11.53
2018-04-13T07:54:08.212Z,6.83
2018-04-13T07:56:37.033Z,9.33
2018-04-13T07:59:05.757Z,9.27
2018-04-13T08:01:34.586Z,8.53
2018-04-13T08:04:03.400Z,6.67
2018-04-13T08:06:32.121Z,5.53
2018-04-13T08:09:00.682Z,6.50
2018-04-13T08:11:29.533Z,6.30
2018-04-13T08:13:58.653Z,5.93
2018-04-13T08:16:27.412Z,5.83
2018-04-13T08:18:56.131Z,5.63
2018-04-13T08:21:24.855Z,7.43
2018-04-13T08:23:53.478Z,6.03
2018-04-13T08:26:22.041Z,6.57
2018-04-13T08:28:50.661Z,6.17
2018-04-13T08:31:19.252Z,4.87
2018-04-13T08:33:47.861Z,6.43
2018-04-13T08:36:16.450Z,6.93
2018-04-13T08:38:45.205Z,6.40
2018-04-13T08:41:13.932Z,6.47
2018-04-13T08:43:42.564Z,5.60
2018-04-13T08:46:11.272Z,5.70
2018-04-13T08:48:40.049Z,5.47
2018-04-13T08:51:08.819Z,5.77
2018-04-13T08:53:37.534Z,6.57
2018-04-13T08:56:06.181Z,5.60
2018-04-13T08:58:34.881Z,5.93
2018-04-13T09:01:03.608Z,6.23
2018-04-13T09:03:32.324Z,5.70
2018-04-13T09:06:01.147Z,5.67
2018-04-13T09:08:29.875Z,5.67
2018-04-13T09:10:58.570Z,5.67
2018-04-13T09:13:28.083Z,6.10
2018-04-13T09:15:56.864Z,6.50
2018-04-13T09:18:25.457Z,5.60
2018-04-13T09:20:54.105Z,5.70
2018-04-13T09:23:22.806Z,6.70
2018-04-13T09:25:51.524Z,7.97
2018-04-13T09:28:20.244Z,6.63
2018-04-13T09:30:49.936Z,5.73
2018-04-13T09:33:18.630Z,6.03
2018-04-13T09:35:47.421Z,6.27
2018-04-13T09:38:16.047Z,6.03
2018-04-13T09:40:44.959Z,5.17
2018-04-13T09:43:13.585Z,5.43
2018-04-13T09:45:42.406Z,5.60
2018-04-13T09:48:11.123Z,5.83
2018-04-13T09:50:39.744Z,6.13
2018-04-13T09:53:08.406Z,6.37
2018-04-13T09:55:37.187Z,6.70
2018-04-13T09:58:05.910Z,5.40
2018-04-13T10:00:34.834Z,5.10
2018-04-13T10:03:03.559Z,6.47
2018-04-13T10:05:32.290Z,5.13
2018-04-13T10:08:01.010Z,5.77
2018-04-13T10:10:30.307Z,5.37
2018-04-13T10:12:58.952Z,4.50
2018-04-13T10:15:27.666Z,4.97
2018-04-13T10:17:57.090Z,5.17
2018-04-13T10:20:25.657Z,5.17
2018-04-13T10:22:54.229Z,5.23
2018-04-13T10:25:22.855Z,6.97
2018-04-13T10:27:51.488Z,5.70
2018-04-13T10:30:20.200Z,5.43
2018-04-13T10:32:48.841Z,4.90
2018-04-13T10:35:17.541Z,5.87
2018-04-13T10:37:46.164Z,5.20
2018-04-13T10:40:14.859Z,5.33
2018-04-13T10:42:43.519Z,5.30
2018-04-13T10:45:12.160Z,7.73
2018-04-13T10:47:41.457Z,6.10
2018-04-13T10:50:10.174Z,5.50
2018-04-13T10:52:38.795Z,5.53
2018-04-13T10:55:07.720Z,5.60
2018-04-13T10:57:36.347Z,6.50
2018-04-13T11:00:04.974Z,5.10
2018-04-13T11:02:33.682Z,5.30
2018-04-13T11:05:02.405Z,5.87
2018-04-13T11:07:31.199Z,6.80
2018-04-13T11:09:59.950Z,5.60
2018-04-13T11:12:28.661Z,5.30
2018-04-13T11:14:57.302Z,5.40
2018-04-13T11:17:26.015Z,5.17
2018-04-13T11:19:54.619Z,5.23
2018-04-13T11:22:23.360Z,5.10
2018-04-13T11:24:55.518Z,4.90
2018-04-13T11:27:25.108Z,5.03
2018-04-13T11:29:53.838Z,5.20
2018-04-13T11:32:22.563Z,4.90
2018-04-13T11:34:51.280Z,6.97
2018-04-13T11:37:19.896Z,5.13
2018-04-13T11:39:50.840Z,5.87
2018-04-13T11:42:19.407Z,5.00
2018-04-13T11:44:48.174Z,5.53
2018-04-13T11:47:17.353Z,5.60
2018-04-13T11:49:46.121Z,5.20
2018-04-13T11:52:14.845Z,5.57
2018-04-13T11:54:43.470Z,5.10
2018-04-13T11:57:14.722Z,5.10
2018-04-13T11:59:43.480Z,5.10
2018-04-13T12:02:13.045Z,5.73
2018-04-13T12:04:41.685Z,4.93
2018-04-13T12:07:10.285Z,5.60
2018-04-13T12:09:38.946Z,4.90
2018-04-13T12:12:07.547Z,7.90
2018-04-13T12:14:36.255Z,7.33
2018-04-13T12:17:04.879Z,4.97
2018-04-13T12:19:33.569Z,5.03
2018-04-13T12:22:02.315Z,4.90
2018-04-13T12:24:31.039Z,4.40
2018-04-13T12:26:59.862Z,4.67
2018-04-13T12:29:28.585Z,4.17
2018-04-13T12:31:57.404Z,4.33
2018-04-13T12:34:26.826Z,4.57
2018-04-13T12:36:55.657Z,4.40
2018-04-13T12:39:24.384Z,4.70
2018-04-13T12:41:53.796Z,4.07
2018-04-13T12:44:22.821Z,5.03
2018-04-13T12:46:51.642Z,4.27
2018-04-13T12:49:20.285Z,4.30
2018-04-13T12:51:48.987Z,4.30
2018-04-13T12:54:17.614Z,5.33
2018-04-13T12:56:46.496Z,5.03
2018-04-13T12:59:15.057Z,4.10
2018-04-13T13:01:43.678Z,4.90
2018-04-13T13:04:12.375Z,4.03
2018-04-13T13:06:41.428Z,4.60
2018-04-13T13:09:10.142Z,4.63
2018-04-13T13:11:38.829Z,4.30
2018-04-13T13:14:07.689Z,4.47
2018-04-13T13:16:36.564Z,4.60
2018-04-13T13:19:05.176Z,4.73
2018-04-13T13:21:33.950Z,4.37
2018-04-13T13:24:02.673Z,3.87
2018-04-13T13:26:31.495Z,4.50
2018-04-13T13:29:00.217Z,4.53
2018-04-13T13:31:28.941Z,4.30
2018-04-13T13:33:58.065Z,4.37
2018-04-13T13:36:26.783Z,4.43
2018-04-13T13:38:55.410Z,3.80
2018-04-13T13:41:24.129Z,3.83
2018-04-13T13:43:52.859Z,4.87
2018-04-13T13:46:21.608Z,5.93
2018-04-13T13:48:50.301Z,4.40
2018-04-13T13:51:18.999Z,4.90
2018-04-13T13:53:47.736Z,3.80
2018-04-13T13:56:16.378Z,4.20
2018-04-13T13:58:44.992Z,5.00
2018-04-13T14:01:13.806Z,5.30
2018-04-13T14:03:42.461Z,4.60
2018-04-13T14:06:11.125Z,5.43
2018-04-13T14:08:39.981Z,6.60
2018-04-13T14:11:08.580Z,5.00
2018-04-13T14:13:37.317Z,5.20
2018-04-13T14:16:06.031Z,5.30
2018-04-13T14:18:34.663Z,4.97
2018-04-13T14:21:03.375Z,4.47
2018-04-13T14:23:32.096Z,4.93
2018-04-13T14:26:00.718Z,4.70
2018-04-13T14:28:29.459Z,4.60
2018-04-13T14:30:58.270Z,5.03
2018-04-13T14:33:26.988Z,5.20
2018-04-13T14:35:55.710Z,4.37
2018-04-13T14:38:24.956Z,4.68
2018-04-13T14:40:53.716Z,4.63
2018-04-13T14:43:22.812Z,4.47
2018-04-13T14:45:51.417Z,5.50
2018-04-13T14:48:20.088Z,4.07
2018-04-13T14:50:48.844Z,5.10
2018-04-13T14:53:17.547Z,4.70
2018-04-13T14:55:46.139Z,4.23
2018-04-13T14:58:14.714Z,3.73
2018-04-13T15:00:43.334Z,4.30
2018-04-13T15:03:11.868Z,4.63
2018-04-13T15:05:40.571Z,4.87
2018-04-13T15:08:09.096Z,4.20
2018-04-13T15:10:37.686Z,7.40
2018-04-13T15:13:06.296Z,7.23
2018-04-13T15:15:34.845Z,4.83
2018-04-13T15:18:03.405Z,4.63
2018-04-13T15:20:32.399Z,4.80
2018-04-13T15:23:00.923Z,4.47
2018-04-13T15:25:29.492Z,4.27
2018-04-13T15:27:58.047Z,4.27
2018-04-13T15:30:26.654Z,5.00
2018-04-13T15:32:55.244Z,4.93
2018-04-13T15:35:23.784Z,5.33
2018-04-13T15:37:52.264Z,5.25
2018-04-13T15:40:20.839Z,4.83
2018-04-13T15:42:49.345Z,4.90
2018-04-13T15:45:17.971Z,4.23
2018-04-13T15:47:46.530Z,4.57
2018-04-13T15:50:15.259Z,4.63
2018-04-13T15:52:44.440Z,5.00
2018-04-13T15:55:12.981Z,4.83
2018-04-13T15:57:41.530Z,4.47
2018-04-13T16:00:10.085Z,5.27
2018-04-13T16:02:38.612Z,5.67
2018-04-13T16:05:07.109Z,5.10
2018-04-13T16:07:35.623Z,4.93
2018-04-13T16:10:04.176Z,5.07
2018-04-13T16:12:32.665Z,4.30
2018-04-13T16:15:01.189Z,5.13
2018-04-13T16:17:29.877Z,5.50
2018-04-13T16:19:58.451Z,4.90
2018-04-13T16:22:27.039Z,5.03
2018-04-13T16:24:55.565Z,6.10
2018-04-13T16:27:24.060Z,5.87
2018-04-13T16:29:53.813Z,5.27
2018-04-13T16:32:22.458Z,4.73
2018-04-13T16:34:51.147Z,7.03
2018-04-13T16:37:19.838Z,7.77
2018-04-13T16:39:48.596Z,8.03
2018-04-13T16:42:17.111Z,8.70
2018-04-13T16:44:45.765Z,8.20
2018-04-13T16:47:14.277Z,8.67
2018-04-13T16:49:42.830Z,9.33
2018-04-13T16:52:11.405Z,9.03
2018-04-13T16:54:40.021Z,8.17
2018-04-13T16:57:09.357Z,7.97
2018-04-13T16:59:37.931Z,6.60
2018-04-13T17:02:06.483Z,8.20
2018-04-13T17:04:35.030Z,7.00
2018-04-13T17:07:03.627Z,5.60
2018-04-13T17:09:32.194Z,6.67
2018-04-13T17:12:00.800Z,6.83
2018-04-13T17:14:29.346Z,6.43
2018-04-13T17:16:57.910Z,6.83
2018-04-13T17:19:26.452Z,6.80
2018-04-13T17:21:54.928Z,7.83
2018-04-13T17:24:23.582Z,7.50
2018-04-13T17:26:52.096Z,8.63
2018-04-13T17:29:21.374Z,7.83
2018-04-13T17:31:49.920Z,13.83
2018-04-13T17:34:18.569Z,11.13
2018-04-13T17:36:47.927Z,8.57
2018-04-13T17:39:16.587Z,8.33
2018-04-13T17:41:45.233Z,7.93
2018-04-13T17:44:13.720Z,7.90
2018-04-13T17:46:42.374Z,7.97
2018-04-13T17:49:10.941Z,14.73
2018-04-13T17:51:39.621Z,8.37
2018-04-13T17:54:08.237Z,7.97
2018-04-13T17:56:36.930Z,8.40
2018-04-13T17:59:05.482Z,8.07
2018-04-13T18:01:34.051Z,7.87
2018-04-13T18:04:03.607Z,7.57
2018-04-13T18:06:32.868Z,8.03
2018-04-13T18:09:01.400Z,7.73
2018-04-13T18:11:29.993Z,11.80
2018-04-13T18:13:58.481Z,10.70
2018-04-13T18:16:27.100Z,9.57
2018-04-13T18:18:55.758Z,8.00
2018-04-13T18:21:24.299Z,8.03
2018-04-13T18:23:52.905Z,8.40
2018-04-13T18:26:21.473Z,8.90
2018-04-13T18:28:49.940Z,9.17
2018-04-13T18:31:18.522Z,9.23
2018-04-13T18:33:47.096Z,9.87
2018-04-13T18:36:15.706Z,10.07
2018-04-13T18:38:44.212Z,9.83
2018-04-13T18:41:12.852Z,11.07
2018-04-13T18:43:42.050Z,10.30
2018-04-13T18:46:10.630Z,8.90
2018-04-13T18:48:39.219Z,9.67
2018-04-13T18:51:07.738Z,8.37
2018-04-13T18:53:36.760Z,8.73
2018-04-13T18:56:05.300Z,9.23
2018-04-13T18:58:33.823Z,8.63
2018-04-13T19:01:02.327Z,9.53
2018-04-13T19:03:30.906Z,8.93
2018-04-13T19:05:59.405Z,12.20
2018-04-13T19:08:27.997Z,8.67
2018-04-13T19:10:56.580Z,10.50
2018-04-13T19:13:25.391Z,9.27
2018-04-13T19:15:54.267Z,9.77
2018-04-13T19:18:22.793Z,10.73
2018-04-13T19:20:51.338Z,11.40
2018-04-13T19:23:20.787Z,12.07
2018-04-13T19:25:49.275Z,11.13
2018-04-13T19:28:17.802Z,10.87
2018-04-13T19:30:46.362Z,9.93
2018-04-13T19:33:14.972Z,10.17
2018-04-13T19:35:43.611Z,9.30
2018-04-13T19:38:12.137Z,9.43
2018-04-13T19:40:40.871Z,8.87
2018-04-13T19:43:09.497Z,8.80
2018-04-13T19:45:38.022Z,8.33
2018-04-13T19:48:07.365Z,8.53
2018-04-13T19:50:35.922Z,8.60
2018-04-13T19:53:04.453Z,9.20
2018-04-13T19:55:33.004Z,8.33
2018-04-13T19:58:01.554Z,8.90
2018-04-13T20:00:30.125Z,8.13
2018-04-13T20:02:58.769Z,8.87
2018-04-13T20:05:27.293Z,8.83
2018-04-13T20:07:55.916Z,11.37
2018-04-13T20:10:24.448Z,12.33
2018-04-13T20:12:53.021Z,12.27
2018-04-13T20:15:28.505Z,42.60
2018-04-13T20:17:57.068Z,12.97
2018-04-13T20:20:25.719Z,11.73
2018-04-13T20:22:54.458Z,11.20
2018-04-13T20:25:23.490Z,9.77
2018-04-13T20:27:52.098Z,10.47
2018-04-13T20:30:22.429Z,11.10
2018-04-13T20:32:51.090Z,11.10
2018-04-13T20:35:19.672Z,10.17
2018-04-13T20:37:48.295Z,14.67
2018-04-13T20:40:16.800Z,10.57
2018-04-13T20:42:45.543Z,10.00
2018-04-13T20:45:14.037Z,9.17
2018-04-13T20:47:42.555Z,9.63
2018-04-13T20:50:11.270Z,9.30
2018-04-13T20:52:39.828Z,8.53
2018-04-13T20:55:08.450Z,9.70
2018-04-13T20:57:37.777Z,10.23
2018-04-13T21:00:06.489Z,9.07
2018-04-13T21:02:35.034Z,8.77
2018-04-13T21:05:03.640Z,8.17
2018-04-13T21:07:32.114Z,8.63
2018-04-13T21:10:00.649Z,8.10
2018-04-13T21:12:29.189Z,7.47
2018-04-13T21:14:57.949Z,7.97
2018-04-13T21:17:26.477Z,18.97
2018-04-13T21:19:57.020Z,19.10
2018-04-13T21:22:25.906Z,8.77
2018-04-13T21:24:54.447Z,8.63
2018-04-13T21:27:23.838Z,7.57
2018-04-13T21:29:52.391Z,7.47
2018-04-13T21:32:20.875Z,7.70
2018-04-13T21:34:49.592Z,8.10
2018-04-13T21:37:18.748Z,6.83
2018-04-13T21:39:47.352Z,7.00
2018-04-13T21:42:15.950Z,7.77
2018-04-13T21:44:44.501Z,7.13
2018-04-13T21:47:13.099Z,7.27
2018-04-13T21:49:41.588Z,7.77
2018-04-13T21:52:10.261Z,7.73
2018-04-13T21:54:38.779Z,7.43
2018-04-13T21:57:07.350Z,7.77
2018-04-13T21:59:35.879Z,7.57
2018-04-13T22:02:04.400Z,6.80
2018-04-13T22:04:32.940Z,6.67
2018-04-13T22:07:01.584Z,6.77
2018-04-13T22:09:30.301Z,9.00
2018-04-13T22:11:58.798Z,32.70
2018-04-13T22:14:39.218Z,8.10
2018-04-13T22:17:08.445Z,8.17
2018-04-13T22:19:36.966Z,7.60
2018-04-13T22:22:05.518Z,8.00
2018-04-13T22:24:34.077Z,8.67
2018-04-13T22:27:02.709Z,7.73
2018-04-13T22:29:31.218Z,8.83
2018-04-13T22:31:59.721Z,9.07
2018-04-13T22:34:28.895Z,7.80
2018-04-13T22:36:57.488Z,8.87
2018-04-13T22:39:25.972Z,8.97
2018-04-13T22:41:54.482Z,9.57
2018-04-13T22:44:23.050Z,9.90
2018-04-13T22:46:51.612Z,9.47
2018-04-13T22:49:20.875Z,10.10
2018-04-13T22:51:49.523Z,10.17
2018-04-13T22:54:18.241Z,9.30
2018-04-13T22:56:46.797Z,8.73
2018-04-13T22:59:15.327Z,9.63
2018-04-13T23:01:43.912Z,10.23
2018-04-13T23:04:12.439Z,9.60
2018-04-13T23:06:41.042Z,10.10
2018-04-13T23:09:09.640Z,10.43
2018-04-13T23:11:38.304Z,11.20
2018-04-13T23:14:07.008Z,11.33
2018-04-13T23:16:35.670Z,12.40
2018-04-13T23:19:04.751Z,10.70
2018-04-13T23:21:33.349Z,11.00
2018-04-13T23:24:01.905Z,10.57
2018-04-13T23:26:30.496Z,11.23
2018-04-13T23:28:59.136Z,11.37
2018-04-13T23:31:27.701Z,10.97
2018-04-13T23:33:56.271Z,11.13
2018-04-13T23:36:24.912Z,10.20
2018-04-13T23:38:53.488Z,9.97
2018-04-13T23:41:22.142Z,10.90
2018-04-13T23:43:50.757Z,10.43
2018-04-13T23:46:19.386Z,11.07
2018-04-13T23:48:47.924Z,11.30
2018-04-13T23:51:16.508Z,11.70
2018-04-13T23:53:46.703Z,10.73
2018-04-13T23:56:15.270Z,10.23
2018-04-13T23:58:43.854Z,11.37
